createdAt,value
2017-09-26T00:00:08.123Z,53.70
2017-09-26T00:02:36.500Z,58.27
2017-09-26T00:05:04.883Z,58.83
2017-09-26T00:07:33.247Z,55.30
2017-09-26T00:10:02.370Z,51.60
2017-09-26T00:12:30.744Z,62.20
2017-09-26T00:14:59.103Z,61.50
2017-09-26T00:17:27.624Z,53.97
2017-09-26T00:19:55.982Z,58.73
2017-09-26T00:22:24.683Z,60.00
2017-09-26T00:24:52.861Z,60.83
2017-09-26T00:27:21.234Z,51.90
2017-09-26T00:29:49.605Z,57.63
2017-09-26T00:32:18.087Z,55.80
2017-09-26T00:34:46.290Z,53.20
2017-09-26T00:37:14.531Z,51.47
2017-09-26T00:39:42.787Z,54.37
2017-09-26T00:42:11.146Z,49.90
2017-09-26T00:44:39.574Z,57.70
2017-09-26T00:47:07.940Z,53.40
2017-09-26T00:49:35.957Z,54.73
2017-09-26T00:52:04.428Z,52.87
2017-09-26T00:54:32.796Z,54.50
2017-09-26T00:57:01.239Z,45.67
2017-09-26T00:59:29.134Z,50.90
2017-09-26T01:01:57.314Z,56.07
2017-09-26T01:04:25.156Z,54.60
2017-09-26T01:10:05.925Z,49.10
2017-09-26T01:12:34.300Z,54.40
2017-09-26T01:15:02.667Z,49.43
2017-09-26T01:17:31.140Z,54.87
2017-09-26T01:19:59.311Z,50.47
2017-09-26T01:22:27.171Z,52.00
2017-09-26T01:24:55.534Z,54.83
2017-09-26T01:27:24.033Z,52.60
2017-09-26T01:29:53.125Z,53.20
2017-09-26T01:32:21.494Z,50.60
2017-09-26T01:34:49.875Z,43.47
2017-09-26T01:37:18.251Z,42.87
2017-09-26T01:39:47.527Z,44.57
2017-09-26T01:42:15.948Z,44.70
2017-09-26T01:44:44.504Z,42.00
2017-09-26T01:47:12.888Z,48.17
2017-09-26T01:49:41.060Z,45.00
2017-09-26T01:52:09.225Z,48.83
2017-09-26T01:54:37.397Z,44.83
2017-09-26T02:00:20.243Z,44.87
2017-09-26T02:02:48.599Z,48.57
2017-09-26T02:05:16.982Z,50.67
2017-09-26T02:07:45.389Z,51.47
2017-09-26T02:10:13.751Z,42.90
2017-09-26T02:12:42.824Z,41.80
2017-09-26T02:15:11.612Z,47.93
2017-09-26T02:17:39.997Z,43.90
2017-09-26T02:20:08.358Z,44.57
2017-09-26T02:22:36.718Z,45.40
2017-09-26T02:25:05.086Z,44.80
2017-09-26T02:27:33.451Z,40.70
2017-09-26T02:30:01.823Z,43.40
2017-09-26T02:32:30.187Z,47.60
2017-09-26T02:34:58.561Z,54.30
2017-09-26T02:37:27.125Z,52.50
2017-09-26T02:39:55.478Z,40.40
2017-09-26T02:42:24.106Z,42.63
2017-09-26T02:44:52.499Z,39.90
2017-09-26T02:47:21.120Z,43.10
2017-09-26T02:49:50.178Z,43.10
2017-09-26T02:52:18.529Z,43.23
2017-09-26T02:54:46.890Z,50.90
2017-09-26T02:57:15.266Z,42.37
2017-09-26T02:59:43.637Z,42.17
2017-09-26T03:02:12.015Z,49.00
2017-09-26T03:04:40.389Z,41.50
2017-09-26T03:07:08.756Z,37.50
2017-09-26T03:09:37.132Z,44.07
2017-09-26T03:12:05.494Z,43.87
2017-09-26T03:14:34.064Z,44.80
2017-09-26T03:17:02.410Z,41.17
2017-09-26T03:19:30.778Z,42.37
2017-09-26T03:21:59.138Z,43.50
2017-09-26T03:24:27.505Z,41.27
2017-09-26T03:26:56.045Z,37.90
2017-09-26T03:29:24.415Z,44.20
2017-09-26T03:31:52.594Z,39.23
2017-09-26T03:34:20.771Z,47.43
2017-09-26T03:36:48.942Z,38.63
2017-09-26T03:39:17.114Z,35.97
2017-09-26T03:41:45.493Z,36.80
2017-09-26T03:44:14.065Z,40.30
2017-09-26T03:46:42.250Z,39.90
2017-09-26T03:49:11.317Z,39.03
2017-09-26T03:51:40.735Z,38.90
2017-09-26T03:54:09.926Z,40.90
2017-09-26T03:56:38.297Z,44.53
2017-09-26T03:59:07.295Z,43.17
2017-09-26T04:01:35.706Z,41.10
2017-09-26T04:04:04.014Z,39.07
2017-09-26T04:06:33.331Z,45.37
2017-09-26T04:09:01.448Z,40.10
2017-09-26T04:11:31.542Z,45.03
2017-09-26T04:14:00.521Z,42.20
2017-09-26T04:16:28.916Z,40.83
2017-09-26T04:18:57.164Z,36.80
2017-09-26T04:21:25.441Z,42.30
2017-09-26T04:23:53.914Z,42.70
2017-09-26T04:26:22.283Z,37.73
2017-09-26T04:28:50.975Z,40.10
2017-09-26T04:31:19.582Z,46.80
2017-09-26T04:33:47.955Z,44.07
2017-09-26T04:36:16.340Z,42.97
2017-09-26T04:38:44.732Z,46.60
2017-09-26T04:41:13.097Z,42.00
2017-09-26T04:43:41.474Z,43.27
2017-09-26T04:46:09.904Z,43.77
2017-09-26T04:48:38.194Z,41.50
2017-09-26T04:51:06.791Z,41.37
2017-09-26T04:53:36.383Z,43.17
2017-09-26T04:56:05.100Z,39.67
2017-09-26T04:58:34.657Z,36.37
2017-09-26T05:01:02.966Z,47.20
2017-09-26T05:03:31.328Z,40.40
2017-09-26T05:05:59.693Z,37.63
2017-09-26T05:08:28.051Z,44.37
2017-09-26T05:10:56.415Z,42.83
2017-09-26T05:13:24.815Z,48.43
2017-09-26T05:15:53.289Z,35.03
2017-09-26T05:18:21.465Z,40.57
2017-09-26T05:20:49.833Z,37.53
2017-09-26T05:23:18.220Z,37.10
2017-09-26T05:25:46.659Z,35.93
2017-09-26T05:28:15.240Z,34.90
2017-09-26T05:30:43.594Z,34.40
2017-09-26T05:33:11.960Z,35.63
2017-09-26T05:35:40.334Z,34.67
2017-09-26T05:38:08.922Z,38.50
2017-09-26T05:40:37.100Z,34.57
2017-09-26T05:43:05.484Z,32.43
2017-09-26T05:45:34.063Z,41.40
2017-09-26T05:48:02.426Z,34.30
2017-09-26T05:50:30.809Z,35.20
2017-09-26T05:52:59.860Z,33.87
2017-09-26T05:55:28.525Z,31.20
2017-09-26T05:57:56.915Z,33.20
2017-09-26T06:00:25.275Z,32.27
2017-09-26T06:02:54.584Z,35.30
2017-09-26T06:05:22.780Z,29.70
2017-09-26T06:07:51.891Z,29.63
2017-09-26T06:10:20.300Z,30.87
2017-09-26T06:12:49.623Z,31.40
2017-09-26T06:15:18.049Z,29.33
2017-09-26T06:17:46.610Z,30.27
2017-09-26T06:20:15.177Z,33.03
2017-09-26T06:22:43.547Z,30.93
2017-09-26T06:25:12.221Z,32.57
2017-09-26T06:27:40.594Z,32.60
2017-09-26T06:30:08.947Z,29.20
2017-09-26T06:32:38.104Z,30.13
2017-09-26T06:35:06.285Z,33.80
2017-09-26T06:37:34.661Z,26.30
2017-09-26T06:40:03.040Z,30.00
2017-09-26T06:42:31.231Z,31.20
2017-09-26T06:44:59.485Z,29.33
2017-09-26T06:47:27.856Z,32.10
2017-09-26T06:49:57.154Z,32.40
2017-09-26T06:52:25.537Z,26.70
2017-09-26T06:54:53.943Z,28.43
2017-09-26T06:57:22.541Z,28.43
2017-09-26T06:59:51.535Z,38.13
2017-09-26T07:02:20.699Z,28.13
2017-09-26T07:04:51.462Z,26.00
2017-09-26T07:20:15.034Z,26.27
2017-09-26T07:22:43.477Z,29.30
2017-09-26T07:25:11.862Z,28.10
2017-09-26T07:27:40.235Z,28.43
2017-09-26T07:30:08.604Z,31.00
2017-09-26T07:32:36.977Z,30.90
2017-09-26T07:35:06.912Z,27.07
2017-09-26T07:37:35.274Z,29.13
2017-09-26T07:40:04.774Z,30.10
2017-09-26T07:42:33.665Z,26.50
2017-09-26T07:45:02.577Z,33.27
2017-09-26T07:47:32.500Z,31.67
2017-09-26T07:50:00.936Z,35.40
2017-09-26T07:52:29.322Z,30.10
2017-09-26T07:54:57.892Z,31.40
2017-09-26T07:57:26.262Z,29.17
2017-09-26T07:59:54.643Z,32.13
2017-09-26T08:02:23.739Z,33.13
2017-09-26T08:04:52.887Z,39.40
2017-09-26T08:07:23.531Z,29.00
2017-09-26T08:09:53.649Z,31.50
2017-09-26T08:12:22.794Z,30.80
2017-09-26T08:14:51.192Z,30.30
2017-09-26T08:17:19.560Z,34.23
2017-09-26T08:19:48.150Z,30.10
2017-09-26T08:22:17.422Z,32.80
2017-09-26T08:24:47.658Z,31.80
2017-09-26T08:27:16.065Z,33.57
2017-09-26T08:29:45.230Z,42.70
2017-09-26T08:32:13.775Z,35.67
2017-09-26T08:34:43.105Z,32.30
2017-09-26T08:37:11.568Z,32.57
2017-09-26T08:39:39.919Z,31.17
2017-09-26T08:42:09.319Z,36.50
2017-09-26T08:44:37.900Z,31.50
2017-09-26T08:47:07.215Z,31.07
2017-09-26T08:49:35.587Z,32.30
2017-09-26T08:52:05.509Z,32.87
2017-09-26T08:54:35.002Z,33.27
2017-09-26T08:57:03.374Z,28.90
2017-09-26T08:59:31.791Z,34.40
2017-09-26T09:02:01.413Z,33.40
2017-09-26T09:04:31.279Z,38.10
2017-09-26T09:07:00.555Z,30.00
2017-09-26T09:09:30.338Z,29.10
2017-09-26T09:12:00.617Z,33.97
2017-09-26T09:14:30.531Z,35.63
2017-09-26T09:16:58.905Z,31.53
2017-09-26T09:19:28.196Z,35.50
2017-09-26T09:21:57.387Z,38.00
2017-09-26T09:24:25.750Z,37.50
2017-09-26T09:26:54.183Z,35.70
2017-09-26T09:29:22.543Z,38.23
2017-09-26T09:31:53.530Z,37.70
2017-09-26T09:34:21.901Z,35.43
2017-09-26T09:36:51.094Z,32.53
2017-09-26T09:39:19.535Z,36.47
2017-09-26T09:41:47.914Z,38.03
2017-09-26T09:44:17.087Z,37.77
2017-09-26T09:46:46.127Z,36.53
2017-09-26T09:49:14.713Z,35.10
2017-09-26T09:51:43.171Z,35.23
2017-09-26T09:54:11.544Z,34.70
2017-09-26T09:56:40.302Z,33.80
2017-09-26T09:59:08.689Z,38.10
2017-09-26T10:01:37.072Z,35.60
2017-09-26T10:04:05.285Z,31.67
2017-09-26T10:06:33.763Z,33.10
2017-09-26T10:09:02.150Z,29.47
2017-09-26T10:11:30.534Z,32.13
2017-09-26T10:13:58.609Z,35.83
2017-09-26T10:16:27.002Z,33.83
2017-09-26T10:18:55.639Z,31.60
2017-09-26T10:21:25.506Z,30.40
2017-09-26T10:23:54.659Z,34.57
2017-09-26T10:26:23.018Z,34.77
2017-09-26T10:28:51.452Z,37.03
2017-09-26T10:31:19.854Z,33.83
2017-09-26T10:33:48.220Z,36.37
2017-09-26T10:36:16.635Z,32.97
2017-09-26T10:38:45.849Z,36.70
2017-09-26T10:41:14.248Z,33.77
2017-09-26T10:43:42.617Z,33.50
2017-09-26T10:46:10.990Z,38.33
2017-09-26T10:48:39.434Z,37.10
2017-09-26T10:51:07.815Z,36.30
2017-09-26T10:53:36.454Z,40.53
2017-09-26T10:56:04.844Z,36.93
2017-09-26T10:58:34.079Z,37.50
2017-09-26T11:01:02.467Z,34.47
2017-09-26T11:03:30.847Z,38.20
2017-09-26T11:05:59.208Z,34.70
2017-09-26T11:08:27.578Z,35.27
2017-09-26T11:10:56.040Z,37.23
2017-09-26T11:13:24.403Z,38.50
2017-09-26T11:15:52.997Z,34.73
2017-09-26T11:18:21.158Z,34.13
2017-09-26T11:20:49.357Z,33.87
2017-09-26T11:23:17.768Z,28.87
2017-09-26T11:25:46.126Z,33.27
2017-09-26T11:28:14.729Z,38.07
2017-09-26T11:30:43.107Z,33.90
2017-09-26T11:33:12.311Z,29.17
2017-09-26T11:35:40.674Z,32.30
2017-09-26T11:38:09.045Z,34.50
2017-09-26T11:40:37.423Z,31.50
2017-09-26T11:43:05.953Z,32.63
2017-09-26T11:45:34.441Z,34.40
2017-09-26T11:48:02.843Z,33.17
2017-09-26T11:50:31.222Z,35.17
2017-09-26T11:52:59.632Z,31.83
2017-09-26T11:55:28.003Z,34.50
2017-09-26T11:57:56.411Z,28.67
2017-09-26T12:00:24.590Z,29.17
2017-09-26T12:02:52.967Z,32.50
2017-09-26T12:05:21.343Z,28.73
2017-09-26T12:07:49.723Z,31.00
2017-09-26T12:10:18.323Z,31.13
2017-09-26T12:12:52.306Z,28.73
2017-09-26T12:15:20.661Z,28.43
2017-09-26T12:17:49.118Z,31.33
2017-09-26T12:20:17.504Z,29.50
2017-09-26T12:22:45.904Z,30.60
2017-09-26T12:25:14.411Z,27.57
2017-09-26T12:27:42.787Z,26.83
2017-09-26T12:30:11.189Z,26.43
2017-09-26T12:32:39.555Z,29.37
2017-09-26T12:35:07.926Z,27.47
2017-09-26T12:37:37.090Z,28.53
2017-09-26T12:40:05.276Z,28.03
2017-09-26T12:42:34.573Z,29.93
2017-09-26T12:45:03.071Z,28.33
2017-09-26T12:47:31.612Z,27.20
2017-09-26T12:50:00.192Z,33.67
2017-09-26T12:52:28.542Z,24.77
2017-09-26T12:54:57.870Z,28.20
2017-09-26T12:57:26.219Z,28.07
2017-09-26T12:59:54.619Z,25.30
2017-09-26T13:02:22.989Z,25.93
2017-09-26T13:04:51.366Z,31.83
2017-09-26T13:07:19.724Z,25.90
2017-09-26T13:09:48.090Z,26.83
2017-09-26T13:12:16.481Z,24.57
2017-09-26T13:14:44.671Z,22.23
2017-09-26T13:17:13.259Z,26.77
2017-09-26T13:19:41.621Z,29.53
2017-09-26T13:22:10.001Z,26.87
2017-09-26T13:24:38.375Z,24.27
2017-09-26T13:27:06.950Z,23.93
2017-09-26T13:29:35.315Z,27.03
2017-09-26T13:32:03.666Z,26.00
2017-09-26T13:34:32.025Z,25.23
2017-09-26T13:37:00.410Z,25.37
2017-09-26T13:39:28.781Z,24.73
2017-09-26T13:41:57.141Z,26.23
2017-09-26T13:44:25.510Z,27.23
2017-09-26T13:46:54.064Z,28.20
2017-09-26T13:49:22.661Z,30.80
2017-09-26T13:51:51.128Z,30.37
2017-09-26T13:54:19.805Z,29.73
2017-09-26T13:56:48.186Z,29.33
2017-09-26T13:59:16.774Z,25.47
2017-09-26T14:01:45.136Z,27.33
2017-09-26T14:04:13.500Z,27.20
2017-09-26T14:06:42.144Z,25.53
2017-09-26T14:09:10.679Z,28.37
2017-09-26T14:11:39.041Z,27.80
2017-09-26T14:14:07.639Z,27.97
2017-09-26T14:16:36.114Z,30.53
2017-09-26T14:19:04.472Z,28.17
2017-09-26T14:21:33.161Z,30.63
2017-09-26T14:24:01.801Z,23.63
2017-09-26T14:26:30.171Z,23.37
2017-09-26T14:28:58.607Z,23.93
2017-09-26T14:31:27.251Z,31.33
2017-09-26T14:33:55.665Z,31.57
2017-09-26T14:36:24.026Z,29.70
2017-09-26T14:38:52.415Z,26.73
2017-09-26T14:41:20.857Z,23.97
2017-09-26T14:43:49.234Z,27.10
2017-09-26T14:46:18.372Z,28.73
2017-09-26T14:48:47.736Z,26.83
2017-09-26T14:51:16.093Z,29.87
2017-09-26T14:53:44.475Z,29.27
2017-09-26T14:56:12.843Z,33.27
2017-09-26T14:58:41.199Z,36.10
2017-09-26T15:01:09.848Z,35.40
2017-09-26T15:03:38.216Z,31.40
2017-09-26T15:06:06.693Z,35.17
2017-09-26T15:08:35.389Z,28.00
2017-09-26T15:11:04.070Z,29.27
2017-09-26T15:13:32.497Z,32.47
2017-09-26T15:16:00.861Z,32.20
2017-09-26T15:18:29.202Z,29.13
2017-09-26T15:20:57.819Z,24.63
2017-09-26T15:23:26.201Z,20.30
2017-09-26T15:25:54.632Z,15.97
2017-09-26T15:28:23.111Z,16.70
2017-09-26T15:30:51.670Z,16.97
2017-09-26T15:33:20.066Z,16.87
2017-09-26T15:35:48.462Z,16.20
2017-09-26T15:38:16.860Z,13.63
2017-09-26T15:40:45.247Z,13.43
2017-09-26T15:43:13.622Z,14.93
2017-09-26T15:45:41.988Z,13.40
2017-09-26T15:48:10.381Z,13.90
2017-09-26T15:50:38.750Z,11.20
2017-09-26T15:53:07.158Z,14.17
2017-09-26T15:55:36.305Z,12.80
2017-09-26T15:58:04.703Z,13.60
2017-09-26T16:00:33.099Z,12.73
2017-09-26T16:03:01.479Z,13.23
2017-09-26T16:05:29.840Z,10.53
2017-09-26T16:07:58.215Z,12.57
2017-09-26T16:10:26.586Z,9.20
2017-09-26T16:12:54.936Z,8.67
2017-09-26T16:15:23.307Z,9.27
2017-09-26T16:17:51.665Z,10.10
2017-09-26T16:20:20.026Z,8.60
2017-09-26T16:22:48.397Z,8.80
2017-09-26T16:25:16.908Z,8.80
2017-09-26T16:27:45.276Z,6.70
2017-09-26T16:30:13.738Z,6.77
2017-09-26T16:32:42.173Z,6.90
2017-09-26T16:35:10.535Z,6.73
2017-09-26T16:37:38.913Z,6.73
2017-09-26T16:40:07.273Z,7.33
2017-09-26T16:42:35.649Z,6.40
2017-09-26T16:45:04.054Z,7.03
2017-09-26T16:47:32.440Z,8.60
2017-09-26T16:50:00.797Z,7.23
2017-09-26T16:52:29.155Z,6.37
2017-09-26T16:54:57.550Z,10.47
2017-09-26T16:57:25.913Z,8.80
2017-09-26T16:59:54.277Z,7.23
2017-09-26T17:02:22.827Z,8.83
2017-09-26T17:04:51.175Z,7.53
2017-09-26T17:07:20.305Z,7.80
2017-09-26T17:09:48.673Z,10.80
2017-09-26T17:12:17.057Z,9.00
2017-09-26T17:14:45.682Z,9.33
2017-09-26T17:17:14.051Z,9.10
2017-09-26T17:19:42.419Z,9.50
2017-09-26T17:22:12.495Z,10.10
2017-09-26T17:24:40.854Z,12.23
2017-09-26T17:27:09.223Z,7.73
2017-09-26T17:29:37.603Z,9.97
2017-09-26T17:32:05.984Z,8.60
2017-09-26T17:34:35.011Z,9.07
2017-09-26T17:37:03.387Z,7.40
2017-09-26T17:39:31.742Z,11.50
2017-09-26T17:42:00.121Z,7.50
2017-09-26T17:44:28.599Z,10.17
2017-09-26T17:46:56.984Z,9.60
2017-09-26T17:49:25.359Z,10.97
2017-09-26T17:51:53.762Z,9.33
2017-09-26T17:54:22.130Z,10.63
2017-09-26T17:56:50.500Z,9.53
2017-09-26T17:59:18.879Z,8.87
2017-09-26T18:01:47.105Z,9.40
2017-09-26T18:04:16.239Z,7.33
2017-09-26T18:06:44.799Z,9.10
2017-09-26T18:09:13.767Z,8.40
2017-09-26T18:11:42.270Z,10.13
2017-09-26T18:14:10.655Z,9.10
2017-09-26T18:16:39.037Z,10.93
2017-09-26T18:19:07.411Z,10.37
2017-09-26T18:21:35.790Z,10.13
2017-09-26T18:24:04.360Z,8.93
2017-09-26T18:26:32.756Z,12.17
2017-09-26T18:29:01.828Z,8.30
2017-09-26T18:31:30.211Z,11.23
2017-09-26T18:33:58.583Z,9.50
2017-09-26T18:36:26.967Z,21.47
2017-09-26T18:38:56.013Z,9.07
2017-09-26T18:41:24.416Z,10.27
2017-09-26T18:43:52.792Z,9.33
2017-09-26T18:46:21.170Z,11.77
2017-09-26T18:48:49.560Z,8.67
2017-09-26T18:51:18.125Z,9.77
2017-09-26T18:53:46.485Z,9.03
2017-09-26T18:56:14.881Z,10.67
2017-09-26T18:58:43.550Z,11.93
2017-09-26T19:01:12.458Z,8.10
2017-09-26T19:03:40.929Z,9.67
2017-09-26T19:06:10.091Z,8.60
2017-09-26T19:08:38.467Z,9.43
2017-09-26T19:11:06.653Z,9.43
2017-09-26T19:13:35.152Z,11.03
2017-09-26T19:16:03.522Z,10.83
2017-09-26T19:18:32.048Z,15.83
2017-09-26T19:21:00.506Z,12.00
2017-09-26T19:23:28.857Z,10.37
2017-09-26T19:25:57.879Z,9.70
2017-09-26T19:28:26.271Z,12.60
2017-09-26T19:30:54.702Z,12.70
2017-09-26T19:33:23.101Z,13.00
2017-09-26T19:35:51.464Z,9.97
2017-09-26T19:38:19.853Z,12.13
2017-09-26T19:40:48.032Z,11.77
2017-09-26T19:43:16.440Z,11.37
2017-09-26T19:45:44.810Z,13.40
2017-09-26T19:48:13.186Z,11.97
2017-09-26T19:50:41.564Z,14.60
2017-09-26T19:53:09.951Z,12.83
2017-09-26T19:55:38.557Z,11.87
2017-09-26T19:58:07.110Z,11.27
2017-09-26T20:00:36.309Z,9.60
2017-09-26T20:03:04.707Z,11.93
2017-09-26T20:05:33.155Z,11.00
2017-09-26T20:08:01.570Z,12.60
2017-09-26T20:10:29.953Z,11.13
2017-09-26T20:12:58.347Z,11.40
2017-09-26T20:15:26.725Z,10.23
2017-09-26T20:17:56.610Z,11.63
2017-09-26T20:20:25.196Z,15.30
2017-09-26T20:22:53.560Z,13.23
2017-09-26T20:25:21.947Z,10.73
2017-09-26T20:27:50.390Z,14.13
2017-09-26T20:30:18.844Z,12.00
2017-09-26T20:32:47.245Z,10.13
2017-09-26T20:35:15.637Z,9.20
2017-09-26T20:37:44.029Z,11.80
2017-09-26T20:40:12.414Z,11.37
2017-09-26T20:42:40.880Z,14.90
2017-09-26T20:45:09.258Z,14.00
2017-09-26T20:47:37.616Z,9.93
2017-09-26T20:50:05.973Z,10.13
2017-09-26T20:52:35.303Z,10.33
2017-09-26T20:55:03.690Z,10.53
2017-09-26T20:57:31.901Z,10.07
2017-09-26T21:00:01.761Z,9.73
2017-09-26T21:02:30.139Z,10.23
2017-09-26T21:04:58.719Z,10.50
2017-09-26T21:07:27.342Z,10.93
2017-09-26T21:09:57.428Z,9.93
2017-09-26T21:12:25.804Z,11.77
2017-09-26T21:14:54.170Z,10.47
2017-09-26T21:17:22.534Z,8.57
2017-09-26T21:19:50.908Z,11.00
2017-09-26T21:22:19.291Z,10.77
2017-09-26T21:24:47.925Z,10.37
2017-09-26T21:27:16.323Z,11.17
2017-09-26T21:29:45.532Z,11.50
2017-09-26T21:32:13.911Z,10.40
2017-09-26T21:34:42.265Z,9.13
2017-09-26T21:37:10.678Z,10.60
2017-09-26T21:39:39.135Z,11.73
2017-09-26T21:42:07.507Z,11.30
2017-09-26T21:44:35.884Z,12.13
2017-09-26T21:47:05.186Z,8.97
2017-09-26T21:49:34.272Z,10.77
2017-09-26T21:52:03.626Z,10.17
2017-09-26T21:54:32.103Z,11.87
2017-09-26T21:57:00.553Z,11.60
2017-09-26T21:59:28.918Z,9.00
2017-09-26T22:01:57.323Z,8.40
2017-09-26T22:04:25.696Z,9.00
2017-09-26T22:06:54.072Z,9.43
2017-09-26T22:09:22.436Z,10.97
2017-09-26T22:11:50.820Z,9.00
2017-09-26T22:14:19.198Z,8.97
2017-09-26T22:16:47.816Z,10.73
2017-09-26T22:19:16.974Z,9.27
2017-09-26T22:21:45.332Z,9.13
2017-09-26T22:24:13.814Z,9.80
2017-09-26T22:26:42.173Z,12.33
2017-09-26T22:29:10.553Z,9.87
2017-09-26T22:31:38.950Z,11.17
2017-09-26T22:34:07.614Z,8.67
2017-09-26T22:36:36.311Z,8.93
2017-09-26T22:39:03.803Z,10.03
2017-09-26T22:41:32.159Z,11.77
2017-09-26T22:44:00.518Z,10.70
2017-09-26T22:46:28.898Z,10.87
2017-09-26T22:48:57.368Z,10.10
2017-09-26T22:51:25.829Z,10.93
2017-09-26T22:53:54.633Z,11.70
2017-09-26T22:56:23.015Z,12.03
2017-09-26T22:58:51.399Z,11.50
2017-09-26T23:01:19.791Z,10.67
2017-09-26T23:03:48.159Z,9.93
2017-09-26T23:06:16.328Z,12.13
2017-09-26T23:08:44.898Z,12.10
2017-09-26T23:11:13.264Z,12.47
2017-09-26T23:13:41.655Z,13.37
2017-09-26T23:16:10.098Z,12.40
2017-09-26T23:18:38.494Z,14.80
2017-09-26T23:21:06.952Z,11.20
2017-09-26T23:23:36.073Z,11.77
2017-09-26T23:26:04.463Z,10.50
2017-09-26T23:28:33.046Z,11.77
2017-09-26T23:31:01.403Z,10.47
2017-09-26T23:33:29.884Z,12.70
2017-09-26T23:35:58.356Z,11.30
2017-09-26T23:38:26.746Z,12.80
2017-09-26T23:40:55.110Z,13.13
2017-09-26T23:43:23.485Z,11.87
2017-09-26T23:45:51.962Z,10.10
2017-09-26T23:48:20.337Z,12.80
2017-09-26T23:50:48.735Z,11.40
2017-09-26T23:53:16.901Z,9.87
2017-09-26T23:55:45.091Z,11.27
2017-09-26T23:58:13.468Z,12.20
